KBJJ/BJJ METAR and TAF weather

Enter ICAO airport designator
Station Type Date Time Source
KBJJ METAR 2020/04/06 08:56 UTC NOAA

KBJJ 060856Z AUTO 00000KT 8SM CLR M02/M02 A3014 RMK AO2 SLP215 T10171022 57003


Station Type Date Time Source
KBJJ Decoded METAR 2020/04/06 08:56 UTC NOAA

WOOSTER WAYNE COUNTY AIRPORT, OH, United States (KBJJ) 40-52N 81-53W 343M
Apr 06, 2020 - 04:56 AM EDT / 2020.04.06 0856 UTC
Wind: Calm:0
Visibility: 8 mile(s):0
Sky conditions: clear
Temperature: 28.9 F (-1.7 C)
Dew Point: 28.0 F (-2.2 C)
Relative Humidity: 96%
Pressure (altimeter): 30.14 in. Hg (1020 hPa)
Pressure tendency: 0.01 inches (0.3 hPa) lower than three hours ago
ob: KBJJ 060856Z AUTO 00000KT 8SM CLR M02/M02 A3014 RMK AO2 SLP215 T10171022 57003
cycle: 9

Station Type Date Time Source
KBJJ TAF UTC NOAA

Error!

Example: see airport list